createdAt,value
2022-08-28T00:08:17.564Z,16.9
2022-08-28T00:18:18.336Z,16.7
2022-08-28T00:28:23.546Z,16.5
2022-08-28T00:38:19.178Z,16.4
2022-08-28T00:48:19.559Z,16.3
2022-08-28T00:58:20.305Z,16.1
2022-08-28T01:08:20.742Z,16
2022-08-28T01:18:21.457Z,15.9
2022-08-28T01:28:21.707Z,15.7
2022-08-28T01:38:22.041Z,15.5
2022-08-28T01:48:22.888Z,15.3
2022-08-28T01:58:23.666Z,15.2
2022-08-28T02:08:24.302Z,15.1
2022-08-28T02:18:24.906Z,14.9
2022-08-28T02:28:24.985Z,14.8
2022-08-28T02:38:25.941Z,14.6
2022-08-28T02:48:26.111Z,14.5
2022-08-28T02:58:27.098Z,14.3
2022-08-28T03:08:27.502Z,14.3
2022-08-28T03:18:28.450Z,14.2
2022-08-28T03:28:29.336Z,14.2
2022-08-28T03:48:30.134Z,14.4
2022-08-28T03:58:30.314Z,14.3
2022-08-28T04:18:31.488Z,14.4
2022-08-28T04:38:32.428Z,14.1
2022-08-28T04:48:32.706Z,14
2022-08-28T04:58:33.503Z,13.9
2022-08-28T05:08:34.150Z,13.9
2022-08-28T05:18:34.639Z,13.8
2022-08-28T05:28:34.948Z,13.9
2022-08-28T05:38:35.428Z,13.8
2022-08-28T05:48:37.231Z,13.9
2022-08-28T05:58:35.870Z,14
2022-08-28T06:08:36.041Z,14.2
2022-08-28T06:18:36.187Z,14.3
2022-08-28T06:28:36.234Z,14.6
2022-08-28T06:38:36.643Z,14.8
2022-08-28T07:08:38.956Z,15.4
2022-08-28T07:18:39.589Z,15.7
2022-08-28T07:28:39.954Z,16.1
2022-08-28T07:31:18.455Z,16.1
2022-08-28T07:38:48.481Z,16.6
2022-08-28T07:48:48.648Z,17
2022-08-28T07:58:48.763Z,17.1
2022-08-28T08:08:49.301Z,17.5
2022-08-28T08:18:50.233Z,17.7
2022-08-28T08:38:55.440Z,17.5
2022-08-28T08:48:51.955Z,17.3
2022-08-28T08:58:52.912Z,18
2022-08-28T09:08:53.552Z,18.2
2022-08-28T09:18:54.078Z,17.8
2022-08-28T09:28:54.806Z,18.5
2022-08-28T09:38:55.801Z,19.3
2022-08-28T09:58:57.336Z,19
2022-08-28T10:08:58.263Z,19.4
2022-08-28T10:18:59.224Z,19.2
2022-08-28T10:28:59.660Z,19.5
2022-08-28T10:38:59.875Z,19.4
2022-08-28T10:49:00.624Z,19.8
2022-08-28T10:59:00.746Z,20.3
2022-08-28T11:09:01.735Z,20
2022-08-28T11:19:02.417Z,20.4
2022-08-28T11:29:03.312Z,20.3
2022-08-28T11:39:03.435Z,20.7
2022-08-28T11:49:04.503Z,20.5
2022-08-28T11:59:06.506Z,21.1
2022-08-28T12:09:04.835Z,20.8
2022-08-28T12:19:05.228Z,20.8
2022-08-28T12:29:06.296Z,21.3
2022-08-28T12:39:06.728Z,21.3
2022-08-28T12:49:07.388Z,21.3
2022-08-28T12:59:08.272Z,21.7
2022-08-28T13:09:08.592Z,21.7
2022-08-28T13:19:09.599Z,22.1
2022-08-28T13:29:10.455Z,21.9
2022-08-28T13:39:11.210Z,22.1
2022-08-28T13:59:12.097Z,21.9
2022-08-28T14:09:12.942Z,22.2
2022-08-28T14:19:13.512Z,23.1
2022-08-28T14:29:14.344Z,22.6
2022-08-28T14:39:14.548Z,22.3
2022-08-28T14:49:14.900Z,22.3
2022-08-28T14:59:18.559Z,22.4
2022-08-28T15:09:15.719Z,22.4
2022-08-28T15:19:16.256Z,22
2022-08-28T15:29:16.693Z,22.1
2022-08-28T15:39:17.448Z,22.1
2022-08-28T15:49:17.993Z,22
2022-08-28T16:09:19.494Z,22.5
2022-08-28T16:19:20.039Z,22.2
2022-08-28T16:29:20.991Z,21.9
2022-08-28T16:49:21.844Z,21.6
2022-08-28T16:59:23.329Z,21.7
2022-08-28T17:09:23.170Z,21.5
2022-08-28T17:19:24.142Z,21.3
2022-08-28T17:29:24.684Z,21.1
2022-08-28T17:39:25.057Z,21
2022-08-28T17:49:25.315Z,20.8
2022-08-28T17:59:25.692Z,20.6
2022-08-28T18:09:26.428Z,20.4
2022-08-28T18:19:27.047Z,20.1
2022-08-28T18:29:27.900Z,19.8
2022-08-28T18:39:29.322Z,19.6
2022-08-28T18:49:29.262Z,19.4
2022-08-28T18:59:29.380Z,19.1
2022-08-28T19:09:32.368Z,18.9
2022-08-28T19:19:30.073Z,18.6
2022-08-28T19:29:30.650Z,18.4
2022-08-28T19:39:31.298Z,18.2
2022-08-28T19:49:32.193Z,17.9
2022-08-28T19:59:33.113Z,17.7
2022-08-28T20:09:34.059Z,17.5
2022-08-28T20:19:34.749Z,17.2
2022-08-28T20:29:34.871Z,17.1
2022-08-28T20:39:35.377Z,16.9
2022-08-28T20:49:39.255Z,16.8
2022-08-28T20:59:39.751Z,16.6
2022-08-28T21:09:43.895Z,16.5
2022-08-28T21:19:40.206Z,16.3
2022-08-28T21:29:37.212Z,16.2
2022-08-28T21:39:38.158Z,16.1
2022-08-28T21:49:38.590Z,15.9
2022-08-28T21:59:39.348Z,15.5
2022-08-28T22:09:40.363Z,15.3
2022-08-28T22:19:40.858Z,15.3
2022-08-28T22:29:41.889Z,15.2
2022-08-28T22:39:42.892Z,15.2
2022-08-28T22:49:43.657Z,14.9
2022-08-28T22:59:44.086Z,14.9
2022-08-28T23:09:44.676Z,14.8
2022-08-28T23:19:46.379Z,14.7
2022-08-28T23:39:45.572Z,14.5
2022-08-28T23:49:46.548Z,14.3
2022-08-28T23:59:46.932Z,14.2
